UPSVAC Airport Information Service

Spokane International Airport

ICAO: KGEG Country: United States
Latitude: 47.6199 Longitude: -117.533
Latest Arrival : UPS1923 (KPDX-KGEG) Latest Departure : UPSJUMP (KGEG-KLBB)


WX CaptureLIVE
Data provided by noaa.gov | Fetched at 16:34:26

METAR : KGEG 281553Z 12006KT 10SM SCT170 BKN250 24/11 A3016 RMK AO2 SLP196 T02440106

TAF : KGEG 281122Z 2812/2912 13004KT P6SM FEW090 OVC120 FM281800 20008KT P6SM SCT100 FM290600 20004KT P6SM BKN250


Runway Data for KGEG
Data provided by openaviationdata.com

Runway ID Mag Var Hdg Length Elevation Surface ILS Freq ILS Id ILS Slope
3 18 27° 8987 ft 2371 ft Asphalt 111.9 IOLJ 3
7 18 72° 8183 ft 2371 ft Asphalt -- -- --
21 18 207° 8987 ft 2371 ft Asphalt 111.1 IGEG 3
25 18 252° 8183 ft 2371 ft Asphalt -- -- --

Spokane International Airport, United States
Use only for reference purposes



Not for navigational purposes.